createdAt,value
2022-12-31T00:00:42.976Z,78.65
2022-12-31T00:03:46.081Z,82.60
2022-12-31T00:06:49.747Z,77.70
2022-12-31T00:09:54.605Z,85.10
2022-12-31T00:12:59.444Z,84.57
2022-12-31T00:16:12.525Z,75.97
2022-12-31T00:19:15.596Z,79.85
2022-12-31T00:22:17.679Z,75.38
2022-12-31T00:25:20.243Z,78.50
2022-12-31T00:28:22.626Z,78.50
2022-12-31T00:31:34.931Z,78.78
2022-12-31T00:34:37.421Z,74.38
2022-12-31T00:37:39.640Z,81.93
2022-12-31T00:40:41.728Z,88.50
2022-12-31T00:43:44.872Z,76.22
2022-12-31T00:46:46.857Z,70.57
2022-12-31T00:49:48.913Z,75.75
2022-12-31T00:52:53.315Z,81.97
2022-12-31T00:56:03.377Z,83.07
2022-12-31T00:59:06.125Z,85.60
2022-12-31T01:02:08.700Z,87.05
2022-12-31T01:05:11.354Z,75.95
2022-12-31T01:08:13.441Z,89.47
2022-12-31T01:11:29.673Z,79.57
2022-12-31T01:14:34.065Z,74.93
2022-12-31T01:17:36.394Z,81.75
2022-12-31T01:20:42.258Z,76.22
2022-12-31T01:23:44.848Z,83.65
2022-12-31T01:26:49.440Z,75.43
2022-12-31T01:29:51.646Z,84.07
2022-12-31T01:32:53.853Z,77.85
2022-12-31T01:35:55.869Z,72.82
2022-12-31T01:39:01.265Z,70.82
2022-12-31T01:42:03.675Z,72.30
2022-12-31T01:45:11.369Z,72.28
2022-12-31T01:48:17.980Z,77.10
2022-12-31T01:51:21.490Z,75.85
2022-12-31T01:54:27.444Z,75.97
2022-12-31T01:57:30.833Z,71.00
2022-12-31T02:00:33.585Z,72.53
2022-12-31T02:03:36.623Z,78.18
2022-12-31T02:06:43.263Z,71.65
2022-12-31T02:09:45.433Z,73.43
2022-12-31T02:12:48.751Z,67.93
2022-12-31T02:16:05.822Z,67.55
2022-12-31T02:19:27.860Z,79.45
2022-12-31T02:23:06.811Z,77.30
2022-12-31T02:26:37.837Z,70.47
2022-12-31T02:29:49.609Z,76.07
2022-12-31T02:33:02.631Z,89.38
2022-12-31T02:36:15.827Z,92.90
2022-12-31T02:39:18.661Z,75.03
2022-12-31T02:42:20.716Z,64.15
2022-12-31T02:45:29.804Z,88.78
2022-12-31T02:48:46.695Z,72.18
2022-12-31T02:52:02.210Z,75.95
2022-12-31T02:55:14.722Z,72.78
2022-12-31T02:59:05.017Z,79.88
2022-12-31T03:02:16.683Z,76.63
2022-12-31T03:05:26.140Z,78.93
2022-12-31T03:08:28.591Z,69.80
2022-12-31T03:11:49.260Z,76.68
2022-12-31T03:14:53.137Z,77.28
2022-12-31T03:18:02.994Z,75.28
2022-12-31T03:21:31.595Z,79.03
2022-12-31T03:24:52.546Z,79.75
2022-12-31T03:27:56.026Z,74.03
2022-12-31T03:31:02.188Z,76.07
2022-12-31T03:34:07.968Z,73.97
2022-12-31T03:37:11.333Z,79.15
2022-12-31T03:40:14.714Z,81.07
2022-12-31T03:43:19.411Z,72.38
2022-12-31T03:46:21.875Z,77.97
2022-12-31T03:49:24.431Z,78.88
2022-12-31T03:52:27.120Z,77.55
2022-12-31T03:55:30.494Z,73.88
2022-12-31T03:58:33.979Z,71.97
2022-12-31T04:01:36.246Z,77.07
2022-12-31T04:04:39.621Z,76.90
2022-12-31T04:07:42.496Z,72.32
2022-12-31T04:10:45.922Z,81.88
2022-12-31T04:13:49.025Z,74.20
2022-12-31T04:16:52.037Z,84.15
2022-12-31T04:19:55.410Z,75.93
2022-12-31T04:22:57.555Z,76.65
2022-12-31T04:26:00.358Z,88.78
2022-12-31T04:29:04.123Z,78.55
2022-12-31T04:32:07.670Z,81.20
2022-12-31T04:35:11.722Z,83.10
2022-12-31T04:38:13.828Z,77.80
2022-12-31T04:41:18.836Z,79.68
2022-12-31T04:44:21.554Z,73.93
2022-12-31T04:47:24.693Z,81.32
2022-12-31T04:50:26.890Z,76.70
2022-12-31T04:53:29.614Z,79.18
2022-12-31T04:56:33.199Z,79.28
2022-12-31T04:59:35.310Z,77.18
2022-12-31T05:02:37.814Z,70.60
2022-12-31T05:05:42.822Z,85.97
2022-12-31T05:08:44.957Z,72.10
2022-12-31T05:11:47.618Z,70.90
2022-12-31T05:14:52.048Z,77.20
2022-12-31T05:17:54.441Z,80.75
2022-12-31T05:20:56.760Z,76.03
2022-12-31T05:23:59.028Z,78.68
2022-12-31T05:27:01.285Z,73.72
2022-12-31T05:30:05.020Z,71.40
2022-12-31T05:33:07.177Z,75.90
2022-12-31T05:36:09.585Z,75.10
2022-12-31T05:39:12.512Z,81.85
2022-12-31T05:42:16.040Z,82.28
2022-12-31T05:45:18.715Z,81.47
2022-12-31T05:48:20.989Z,69.97
2022-12-31T05:51:23.171Z,62.25
2022-12-31T05:54:25.238Z,66.82
2022-12-31T05:57:27.359Z,60.45
2022-12-31T06:00:29.450Z,67.07
2022-12-31T06:03:31.738Z,74.57
2022-12-31T06:06:33.797Z,67.07
2022-12-31T06:09:35.932Z,66.15
2022-12-31T06:12:39.851Z,67.05
2022-12-31T06:15:41.905Z,69.47
2022-12-31T06:18:44.056Z,79.10
2022-12-31T06:21:46.155Z,76.35
2022-12-31T06:24:48.319Z,63.05
2022-12-31T06:27:50.342Z,74.03
2022-12-31T06:31:00.181Z,72.78
2022-12-31T06:34:02.684Z,68.38
2022-12-31T06:37:04.902Z,60.00
2022-12-31T06:40:07.956Z,69.75
2022-12-31T06:43:11.079Z,64.72
2022-12-31T06:46:16.576Z,67.90
2022-12-31T06:49:18.698Z,61.15
2022-12-31T06:52:21.432Z,75.35
2022-12-31T06:55:26.371Z,69.32
2022-12-31T06:58:28.845Z,67.22
2022-12-31T07:01:39.840Z,64.32
2022-12-31T07:05:00.630Z,63.70
2022-12-31T07:08:24.199Z,68.28
2022-12-31T07:11:52.286Z,64.63
2022-12-31T07:15:16.142Z,62.58
2022-12-31T07:18:33.064Z,66.25
2022-12-31T07:21:40.176Z,65.63
2022-12-31T07:24:43.436Z,72.05
2022-12-31T07:27:57.394Z,86.25
2022-12-31T07:31:43.051Z,76.18
2022-12-31T07:34:57.285Z,72.13
2022-12-31T07:38:18.491Z,74.32
2022-12-31T07:41:27.402Z,72.65
2022-12-31T07:44:53.415Z,70.20
2022-12-31T07:48:02.116Z,75.63
2022-12-31T07:51:05.147Z,72.70
2022-12-31T07:54:13.393Z,71.63
2022-12-31T07:57:18.858Z,75.22
2022-12-31T08:00:29.545Z,74.47
2022-12-31T08:04:03.790Z,75.97
2022-12-31T08:07:18.969Z,70.25
2022-12-31T08:10:32.398Z,78.32
2022-12-31T08:13:34.575Z,84.70
2022-12-31T08:16:36.930Z,74.10
2022-12-31T08:19:39.381Z,72.75
2022-12-31T08:22:51.230Z,74.85
2022-12-31T08:26:30.152Z,76.22
2022-12-31T08:29:32.260Z,67.85
2022-12-31T08:32:57.212Z,75.88
2022-12-31T08:36:10.474Z,78.47
2022-12-31T08:39:36.419Z,71.43
2022-12-31T08:43:11.652Z,73.22
2022-12-31T08:46:27.895Z,78.63
2022-12-31T08:49:34.638Z,81.57
2022-12-31T08:52:36.934Z,79.45
2022-12-31T08:55:42.128Z,76.22
2022-12-31T08:59:12.986Z,54.00
2022-12-31T09:02:24.022Z,71.05
2022-12-31T09:05:31.957Z,71.93
2022-12-31T09:08:55.228Z,62.45
2022-12-31T09:12:20.662Z,67.13
2022-12-31T09:15:58.475Z,49.75
2022-12-31T09:19:01.373Z,47.08
2022-12-31T09:22:04.696Z,51.40
2022-12-31T09:25:14.391Z,49.15
2022-12-31T09:28:44.526Z,46.78
2022-12-31T09:32:02.091Z,44.60
2022-12-31T09:35:37.116Z,42.20
2022-12-31T09:39:00.297Z,60.92
2022-12-31T09:42:21.665Z,53.75
2022-12-31T09:46:05.180Z,56.40
2022-12-31T09:49:23.145Z,61.47
2022-12-31T09:53:02.634Z,61.53
2022-12-31T09:56:10.860Z,55.65
2022-12-31T09:59:21.717Z,53.50
2022-12-31T10:02:37.097Z,58.28
2022-12-31T10:06:22.218Z,56.50
2022-12-31T10:09:29.216Z,51.72
2022-12-31T10:12:49.352Z,60.90
2022-12-31T10:16:03.183Z,53.63
2022-12-31T10:19:17.224Z,38.75
2022-12-31T10:22:37.644Z,52.38
2022-12-31T10:26:03.771Z,62.50
2022-12-31T10:29:23.807Z,53.60
2022-12-31T10:32:52.517Z,52.20
2022-12-31T10:36:04.766Z,49.43
2022-12-31T10:39:33.609Z,46.55
2022-12-31T10:42:38.414Z,59.63
2022-12-31T10:46:40.142Z,45.50
2022-12-31T10:49:45.074Z,53.45
2022-12-31T10:53:05.312Z,48.35
2022-12-31T10:56:35.163Z,66.13
2022-12-31T11:00:06.031Z,50.22
2022-12-31T11:03:50.605Z,49.45
2022-12-31T11:07:14.306Z,46.20
2022-12-31T11:10:34.893Z,52.15
2022-12-31T11:14:21.219Z,46.95
2022-12-31T11:17:49.145Z,45.65
2022-12-31T11:21:13.929Z,46.63
2022-12-31T11:24:37.207Z,52.13
2022-12-31T11:28:18.462Z,47.17
2022-12-31T11:31:47.683Z,48.17
2022-12-31T11:35:04.675Z,49.05
2022-12-31T11:38:20.655Z,53.13
2022-12-31T11:41:39.872Z,65.30
2022-12-31T11:48:32.946Z,52.72
2022-12-31T11:51:52.471Z,48.40
2022-12-31T11:55:12.250Z,53.15
2022-12-31T11:58:17.202Z,43.42
2022-12-31T12:01:30.951Z,44.58
2022-12-31T12:04:33.244Z,55.90
2022-12-31T12:07:35.570Z,49.75
2022-12-31T12:11:07.607Z,48.17
2022-12-31T12:14:30.100Z,51.03
2022-12-31T12:17:34.554Z,47.47
2022-12-31T12:20:38.976Z,46.97
2022-12-31T12:23:42.687Z,49.00
2022-12-31T12:26:48.987Z,52.72
2022-12-31T12:29:51.103Z,50.17
2022-12-31T12:33:01.597Z,51.25
2022-12-31T12:36:11.977Z,51.25
2022-12-31T12:39:28.976Z,85.78
2022-12-31T12:42:31.836Z,55.95
2022-12-31T12:45:51.832Z,60.60
2022-12-31T12:48:58.412Z,60.55
2022-12-31T12:52:21.716Z,49.83
2022-12-31T12:55:26.474Z,62.28
2022-12-31T12:58:43.086Z,58.97
2022-12-31T13:02:10.750Z,55.67
2022-12-31T13:05:39.872Z,49.58
2022-12-31T13:08:57.135Z,55.67
2022-12-31T13:12:56.917Z,42.15
2022-12-31T13:16:32.169Z,45.50
2022-12-31T13:19:47.706Z,48.87
2022-12-31T13:23:36.200Z,47.72
2022-12-31T13:27:02.264Z,58.92
2022-12-31T13:30:15.542Z,45.08
2022-12-31T13:33:23.269Z,40.13
2022-12-31T13:36:28.776Z,44.37
2022-12-31T13:39:36.608Z,39.15
2022-12-31T13:42:53.391Z,40.17
2022-12-31T13:46:21.239Z,43.42
2022-12-31T13:49:46.506Z,48.55
2022-12-31T13:52:57.238Z,40.47
2022-12-31T13:56:04.258Z,46.33
2022-12-31T13:59:12.902Z,43.90
2022-12-31T14:02:18.305Z,119.38
2022-12-31T14:05:30.249Z,46.50
2022-12-31T14:08:32.327Z,52.20
2022-12-31T14:11:55.283Z,48.78
2022-12-31T14:15:13.329Z,49.08
2022-12-31T14:18:37.923Z,50.08
2022-12-31T14:21:49.770Z,40.42
2022-12-31T14:24:52.522Z,46.83
2022-12-31T14:27:56.722Z,47.25
2022-12-31T14:31:37.066Z,54.33
2022-12-31T14:39:20.975Z,55.58
2022-12-31T14:42:36.881Z,55.90
2022-12-31T14:45:38.885Z,50.58
2022-12-31T14:48:46.903Z,52.70
2022-12-31T14:51:51.856Z,56.15
2022-12-31T14:55:08.085Z,65.82
2022-12-31T14:58:34.704Z,62.22
2022-12-31T15:01:49.379Z,52.35
2022-12-31T15:05:26.587Z,137.02
2022-12-31T15:08:43.152Z,65.15
2022-12-31T15:12:09.741Z,60.13
2022-12-31T15:15:33.574Z,52.95
2022-12-31T15:18:53.610Z,56.28
2022-12-31T15:22:24.435Z,56.53
2022-12-31T15:25:40.874Z,62.75
2022-12-31T15:28:43.734Z,66.10
2022-12-31T15:31:48.167Z,65.65
2022-12-31T15:35:02.115Z,64.65
2022-12-31T15:38:38.210Z,61.13
2022-12-31T15:42:10.215Z,62.00
2022-12-31T15:45:13.934Z,61.97
2022-12-31T15:48:26.376Z,60.75
2022-12-31T15:51:33.194Z,58.30
2022-12-31T15:54:39.713Z,66.03
2022-12-31T15:57:43.742Z,69.55
2022-12-31T16:01:02.319Z,62.42
2022-12-31T16:04:33.624Z,64.28
2022-12-31T16:07:35.900Z,72.47
2022-12-31T16:10:38.197Z,68.72
2022-12-31T16:13:47.358Z,66.22
2022-12-31T16:17:27.406Z,57.75
2022-12-31T16:20:32.537Z,67.13
2022-12-31T16:23:42.053Z,61.13
2022-12-31T16:26:48.325Z,73.68
2022-12-31T16:29:58.751Z,66.22
2022-12-31T16:33:04.143Z,66.22
2022-12-31T16:36:18.834Z,67.22
2022-12-31T16:39:29.539Z,62.33
2022-12-31T16:42:33.139Z,71.85
2022-12-31T16:45:36.968Z,71.80
2022-12-31T16:48:39.490Z,67.93
2022-12-31T16:51:42.513Z,68.80
2022-12-31T16:54:50.484Z,70.55
2022-12-31T16:58:03.095Z,66.80
2022-12-31T17:01:36.649Z,82.78
2022-12-31T17:04:45.916Z,70.63
2022-12-31T17:07:50.477Z,66.75
2022-12-31T17:10:56.751Z,67.68
2022-12-31T17:14:10.550Z,66.72
2022-12-31T17:17:23.756Z,59.17
2022-12-31T17:20:29.117Z,62.50
2022-12-31T17:23:33.877Z,63.92
2022-12-31T17:26:38.136Z,64.93
2022-12-31T17:29:40.415Z,40.67
2022-12-31T17:32:43.647Z,68.60
2022-12-31T17:35:46.108Z,72.82
2022-12-31T17:38:49.617Z,66.32
2022-12-31T17:41:55.805Z,76.72
2022-12-31T17:45:15.780Z,59.17
2022-12-31T17:48:20.142Z,83.07
2022-12-31T17:51:24.269Z,78.93
2022-12-31T17:54:26.764Z,75.32
2022-12-31T17:57:37.681Z,70.53
2022-12-31T18:00:39.879Z,65.60
2022-12-31T18:03:44.892Z,65.53
2022-12-31T18:06:58.620Z,58.55
2022-12-31T18:10:32.462Z,71.32
2022-12-31T18:13:41.195Z,64.18
2022-12-31T18:17:14.614Z,67.20
2022-12-31T18:20:17.896Z,80.80
2022-12-31T18:23:36.744Z,81.25
2022-12-31T18:26:51.242Z,68.15
2022-12-31T18:30:02.238Z,76.70
2022-12-31T18:33:28.239Z,75.13
2022-12-31T18:37:17.928Z,71.22
2022-12-31T18:44:32.265Z,63.28
2022-12-31T18:47:37.617Z,66.57
2022-12-31T18:50:41.105Z,68.05
2022-12-31T18:53:43.709Z,62.97
2022-12-31T18:56:49.203Z,65.72
2022-12-31T18:59:55.039Z,71.50
2022-12-31T19:02:59.595Z,62.58
2022-12-31T19:06:02.012Z,61.85
2022-12-31T19:09:09.344Z,71.43
2022-12-31T19:12:25.605Z,67.07
2022-12-31T19:15:41.600Z,65.50
2022-12-31T19:18:43.865Z,67.07
2022-12-31T19:21:46.467Z,62.60
2022-12-31T19:24:48.563Z,60.50
2022-12-31T19:27:51.559Z,61.20
2022-12-31T19:30:54.062Z,70.22
2022-12-31T19:33:56.397Z,66.22
2022-12-31T19:36:58.505Z,69.18
2022-12-31T19:40:11.673Z,65.47
2022-12-31T19:43:15.953Z,67.93
2022-12-31T19:46:18.991Z,76.93
2022-12-31T19:49:21.170Z,66.30
2022-12-31T19:52:23.255Z,73.68
2022-12-31T19:55:26.476Z,71.45
2022-12-31T19:58:32.558Z,80.18
2022-12-31T20:01:34.930Z,81.38
2022-12-31T20:04:37.150Z,77.13
2022-12-31T20:07:39.807Z,76.93
2022-12-31T20:10:41.834Z,73.68
2022-12-31T20:13:44.647Z,80.38
2022-12-31T20:16:48.958Z,80.10
2022-12-31T20:19:51.629Z,91.10
2022-12-31T20:22:53.939Z,88.55
2022-12-31T20:25:58.120Z,83.25
2022-12-31T20:29:03.382Z,85.65
2022-12-31T20:32:06.011Z,81.63
2022-12-31T20:35:08.074Z,80.80
2022-12-31T20:38:10.276Z,87.55
2022-12-31T20:41:18.757Z,87.68
2022-12-31T20:44:21.249Z,73.75
2022-12-31T20:47:23.276Z,81.50
2022-12-31T20:50:25.305Z,82.95
2022-12-31T20:53:27.926Z,78.82
2022-12-31T20:56:33.321Z,84.97
2022-12-31T20:59:35.347Z,76.97
2022-12-31T21:02:42.654Z,80.13
2022-12-31T21:05:54.472Z,88.07
2022-12-31T21:08:59.416Z,83.28
2022-12-31T21:12:20.300Z,79.72
2022-12-31T21:15:22.362Z,82.32
2022-12-31T21:18:24.662Z,72.45
2022-12-31T21:21:26.848Z,82.85
2022-12-31T21:24:28.904Z,80.78
2022-12-31T21:27:31.133Z,77.97
2022-12-31T21:30:33.656Z,80.72
2022-12-31T21:33:35.825Z,83.75
2022-12-31T21:36:37.908Z,91.07
2022-12-31T21:39:40.128Z,93.15
2022-12-31T21:42:42.344Z,95.28
2022-12-31T21:45:52.316Z,85.38
2022-12-31T21:48:58.840Z,74.72
2022-12-31T21:52:19.675Z,86.13
2022-12-31T21:55:40.472Z,81.30
2022-12-31T21:58:44.704Z,89.20
2022-12-31T22:02:05.160Z,135.23
2022-12-31T22:05:17.333Z,113.60
2022-12-31T22:08:24.588Z,108.55
2022-12-31T22:11:28.469Z,106.35
2022-12-31T22:14:30.994Z,113.95
2022-12-31T22:17:33.014Z,113.28
2022-12-31T22:20:35.916Z,210.77
2022-12-31T22:23:38.700Z,213.25
2022-12-31T22:26:46.515Z,215.43
2022-12-31T22:29:48.981Z,204.30
2022-12-31T22:32:51.299Z,209.52
2022-12-31T22:36:01.759Z,230.82
2022-12-31T22:39:04.924Z,248.93
2022-12-31T22:42:08.518Z,244.80
2022-12-31T22:45:11.965Z,227.57
2022-12-31T22:48:14.070Z,180.88
2022-12-31T22:51:19.986Z,207.73
2022-12-31T22:54:22.135Z,205.23
2022-12-31T22:57:24.138Z,169.43
2022-12-31T23:00:39.801Z,178.77
2022-12-31T23:03:42.949Z,170.95
2022-12-31T23:06:46.838Z,167.02
2022-12-31T23:10:08.192Z,175.10
2022-12-31T23:13:30.882Z,172.02
2022-12-31T23:20:52.223Z,181.63
2022-12-31T23:23:57.694Z,174.13
2022-12-31T23:27:28.944Z,186.02
2022-12-31T23:30:31.064Z,157.68
2022-12-31T23:33:35.545Z,154.40
2022-12-31T23:36:42.977Z,145.02
2022-12-31T23:39:48.220Z,120.07
2022-12-31T23:42:50.525Z,97.90
2022-12-31T23:45:52.768Z,96.90
2022-12-31T23:48:54.767Z,89.07
2022-12-31T23:51:59.669Z,102.90
2022-12-31T23:55:03.836Z,96.43
2022-12-31T23:58:07.523Z,95.35
